Time;durP1;ratioP1;P1;durP2;ratioP2;P2;SDS_P1;SDS_P2;PMS_P1;PMS_P2;Temp;Humidity;BMP_temperature;BMP_pressure;BME280_temperature;BME280_humidity;BME280_pressure;Samples;Min_cycle;Max_cycle;Signal;HPM_P1;HPM_P2
2021/12/11 17:57:41;;;;;;;33.25;14.60;;;;;;;;;;5070970;28;20897;-66
2021/12/11 18:00:09;;;;;;;37.05;16.38;;;;;;;;;;5071924;28;20047;-64
2021/12/11 18:02:35;;;;;;;27.52;12.68;;;;;;;;;;5074853;28;20429;-65
2021/12/11 18:05:03;;;;;;;97.25;35.08;;;;;;;;;;5067776;28;20390;-66
2021/12/11 18:07:41;;;;;;;39.63;16.50;;;;;;;;;;5067638;28;20430;-64
2021/12/11 18:10:10;;;;;;;41.97;14.65;;;;;;;;;;5070825;28;20070;-65
2021/12/11 18:12:42;;;;;;;33.33;13.88;;;;;;;;;;5068717;28;20472;-65
2021/12/11 18:15:10;;;;;;;31.92;12.98;;;;;;;;;;5055215;28;20359;-65
2021/12/11 18:17:42;;;;;;;36.22;15.25;;;;;;;;;;5082216;28;20040;-65
2021/12/11 18:20:28;;;;;;;30.10;13.00;;;;;;;;;;5073513;28;20112;-65
2021/12/11 18:22:54;;;;;;;27.00;13.90;;;;;;;;;;5043532;28;20116;-65
2021/12/11 18:25:21;;;;;;;38.53;18.17;;;;;;;;;;5057678;28;20656;-65
2021/12/11 18:27:47;;;;;;;22.27;8.10;;;;;;;;;;5067244;28;20417;-65
2021/12/11 18:30:24;;;;;;;28.42;7.50;;;;;;;;;;5064904;28;20577;-65
2021/12/11 18:32:50;;;;;;;21.67;7.75;;;;;;;;;;5067415;28;20536;-65
2021/12/11 18:35:18;;;;;;;14.30;6.80;;;;;;;;;;5067153;28;20020;-65
2021/12/11 18:37:45;;;;;;;14.23;6.30;;;;;;;;;;5067063;28;20047;-64
2021/12/11 18:40:19;;;;;;;17.58;5.05;;;;;;;;;;5067187;28;20166;-65
2021/12/11 18:42:45;;;;;;;10.57;5.28;;;;;;;;;;5056549;28;20029;-65
2021/12/11 18:45:13;;;;;;;15.48;4.72;;;;;;;;;;5060139;28;20028;-65
2021/12/11 18:47:39;;;;;;;10.70;4.40;;;;;;;;;;5066785;28;20067;-65
2021/12/11 18:50:06;;;;;;;16.48;4.97;;;;;;;;;;5066748;28;20149;-65
2021/12/11 18:52:33;;;;;;;12.15;4.88;;;;;;;;;;5067152;28;20391;-65
2021/12/11 18:55:05;;;;;;;11.80;4.82;;;;;;;;;;5068735;28;20027;-65
2021/12/11 18:57:31;;;;;;;11.70;5.90;;;;;;;;;;5072260;28;20045;-65
2021/12/11 18:59:58;;;;;;;13.20;4.15;;;;;;;;;;5074994;28;20033;-64
2021/12/11 19:02:25;;;;;;;6.68;2.83;;;;;;;;;;5076781;28;20032;-65
2021/12/11 19:04:53;;;;;;;10.10;3.58;;;;;;;;;;5067485;28;20028;-65
2021/12/11 19:07:19;;;;;;;12.80;3.63;;;;;;;;;;5065179;28;20396;-64
2021/12/11 19:09:46;;;;;;;8.52;3.17;;;;;;;;;;5060091;28;20028;-65
2021/12/11 19:12:16;;;;;;;15.63;6.95;;;;;;;;;;5062218;28;20037;-66
2021/12/11 19:14:43;;;;;;;10.18;4.22;;;;;;;;;;5054333;28;20033;-65
2021/12/11 19:17:09;;;;;;;9.48;2.67;;;;;;;;;;5058154;28;20068;-64
2021/12/11 19:19:35;;;;;;;13.70;4.05;;;;;;;;;;5057540;28;20028;-64
2021/12/11 19:22:04;;;;;;;10.18;5.32;;;;;;;;;;5064411;28;20024;-64
2021/12/11 19:24:30;;;;;;;8.70;2.80;;;;;;;;;;5062042;28;20025;-65
2021/12/11 19:26:58;;;;;;;4.63;2.03;;;;;;;;;;5067394;28;20016;-64
2021/12/11 19:29:29;;;;;;;5.47;2.60;;;;;;;;;;5051693;28;20044;-66
2021/12/11 19:31:55;;;;;;;8.93;2.60;;;;;;;;;;5052791;28;20032;-65
2021/12/11 19:34:22;;;;;;;10.52;2.55;;;;;;;;;;5052837;28;20037;-65
2021/12/11 19:36:48;;;;;;;9.70;5.32;;;;;;;;;;5052736;28;20037;-64
2021/12/11 19:39:18;;;;;;;10.35;5.82;;;;;;;;;;5052674;28;20117;-65
2021/12/11 19:41:45;;;;;;;12.02;6.22;;;;;;;;;;5052889;28;20391;-65
2021/12/11 19:44:11;;;;;;;15.30;6.13;;;;;;;;;;5052824;28;20032;-64
2021/12/11 19:46:37;;;;;;;11.13;4.72;;;;;;;;;;5055318;28;20039;-65
2021/12/11 19:49:03;;;;;;;12.27;4.68;;;;;;;;;;5052815;28;20364;-66
2021/12/11 19:51:31;;;;;;;11.32;4.80;;;;;;;;;;5052840;28;20059;-67
2021/12/11 19:53:58;;;;;;;13.20;5.85;;;;;;;;;;5051410;28;20033;-66
2021/12/11 19:56:24;;;;;;;14.95;4.90;;;;;;;;;;5049979;28;20114;-65
2021/12/11 19:58:51;;;;;;;14.13;7.72;;;;;;;;;;5052172;28;20543;-65
2021/12/11 20:01:21;;;;;;;15.10;6.50;;;;;;;;;;5052384;28;20027;-65
2021/12/11 20:03:48;;;;;;;11.25;4.50;;;;;;;;;;5051953;28;20017;-64
2021/12/11 20:06:16;;;;;;;8.00;3.22;;;;;;;;;;5052266;28;20025;-64
2021/12/11 20:08:51;;;;;;;11.00;3.60;;;;;;;;;;5055563;28;20079;-64
2021/12/11 20:11:18;;;;;;;8.32;3.65;;;;;;;;;;5048916;28;20048;-64
2021/12/11 20:13:45;;;;;;;6.25;3.10;;;;;;;;;;5052211;28;21075;-66
2021/12/11 20:16:12;;;;;;;8.65;3.17;;;;;;;;;;5051820;28;20094;-65
2021/12/11 20:18:42;;;;;;;7.88;3.70;;;;;;;;;;5037302;28;20025;-65
2021/12/11 20:21:18;;;;;;;13.30;3.53;;;;;;;;;;5059729;28;20060;-64
2021/12/11 20:23:46;;;;;;;14.23;4.95;;;;;;;;;;5062062;28;20108;-65
2021/12/11 20:26:12;;;;;;;8.77;4.97;;;;;;;;;;5049671;28;20037;-65
2021/12/11 20:28:38;;;;;;;11.10;5.60;;;;;;;;;;5051138;28;20029;-65
2021/12/11 20:31:07;;;;;;;11.48;4.07;;;;;;;;;;5052225;28;20037;-66
2021/12/11 20:33:33;;;;;;;17.75;3.63;;;;;;;;;;5052011;28;20079;-66
2021/12/11 20:35:59;;;;;;;21.27;5.28;;;;;;;;;;5057898;28;20029;-65
2021/12/11 20:38:25;;;;;;;22.95;9.65;;;;;;;;;;5056092;28;20082;-65
2021/12/11 20:40:53;;;;;;;17.08;5.90;;;;;;;;;;5051808;28;20516;-65
2021/12/11 20:43:19;;;;;;;21.35;8.82;;;;;;;;;;5050607;28;20100;-65
2021/12/11 20:45:47;;;;;;;17.60;7.60;;;;;;;;;;5051295;28;20029;-65
2021/12/11 20:48:13;;;;;;;11.98;4.43;;;;;;;;;;5050110;28;20029;-65
2021/12/11 20:50:42;;;;;;;18.67;4.63;;;;;;;;;;5060257;28;20088;-65
2021/12/11 20:53:08;;;;;;;17.38;6.80;;;;;;;;;;5060724;28;20021;-65
2021/12/11 20:55:34;;;;;;;12.95;4.78;;;;;;;;;;5056769;28;20056;-66
2021/12/11 20:58:01;;;;;;;13.18;4.70;;;;;;;;;;5056300;28;20021;-66
2021/12/11 21:00:29;;;;;;;19.08;7.68;;;;;;;;;;5062988;28;20033;-67
2021/12/11 21:02:55;;;;;;;13.82;4.93;;;;;;;;;;5062275;28;20025;-66
2021/12/11 21:05:41;;;;;;;17.92;6.70;;;;;;;;;;5059730;28;20558;-66
2021/12/11 21:08:07;;;;;;;11.45;5.93;;;;;;;;;;5060893;28;20028;-67
2021/12/11 21:10:53;;;;;;;15.57;5.28;;;;;;;;;;5048392;28;20077;-66
2021/12/11 21:13:24;;;;;;;15.00;3.80;;;;;;;;;;5060782;28;20024;-66
2021/12/11 21:15:52;;;;;;;13.95;3.95;;;;;;;;;;5063217;28;20497;-66
2021/12/11 21:18:19;;;;;;;16.17;4.03;;;;;;;;;;5055719;28;20025;-66
2021/12/11 21:20:53;;;;;;;15.98;4.90;;;;;;;;;;5052137;28;20036;-66
2021/12/11 21:23:20;;;;;;;19.92;6.50;;;;;;;;;;5050883;28;20025;-66
2021/12/11 21:25:47;;;;;;;30.85;9.85;;;;;;;;;;5058646;28;20021;-66
2021/12/11 21:28:15;;;;;;;19.10;8.15;;;;;;;;;;5058756;28;20475;-66
2021/12/11 21:30:42;;;;;;;30.35;7.60;;;;;;;;;;5045455;28;20490;-66
2021/12/11 21:33:10;;;;;;;18.58;4.88;;;;;;;;;;5040231;28;20048;-67
2021/12/11 21:35:37;;;;;;;24.58;6.55;;;;;;;;;;5045296;28;20033;-67
2021/12/11 21:38:03;;;;;;;21.48;5.35;;;;;;;;;;5068332;28;20032;-66
2021/12/11 21:40:31;;;;;;;20.20;4.97;;;;;;;;;;5064449;28;20020;-67
2021/12/11 21:42:59;;;;;;;24.98;7.32;;;;;;;;;;5050120;28;20108;-66
2021/12/11 21:45:26;;;;;;;24.83;7.63;;;;;;;;;;5050074;28;20079;-66
2021/12/11 21:48:01;;;;;;;14.73;4.60;;;;;;;;;;5055259;28;20017;-67
2021/12/11 21:50:31;;;;;;;28.58;5.45;;;;;;;;;;5055286;28;20103;-66
2021/12/11 21:52:58;;;;;;;17.17;3.85;;;;;;;;;;5055860;28;20087;-66
2021/12/11 21:55:25;;;;;;;24.77;5.72;;;;;;;;;;5059577;28;20036;-66
2021/12/11 21:57:51;;;;;;;25.45;3.50;;;;;;;;;;5051707;28;20251;-66
2021/12/11 22:00:19;;;;;;;18.30;4.70;;;;;;;;;;5057798;28;20025;-66
2021/12/11 22:02:50;;;;;;;31.33;10.07;;;;;;;;;;5043967;28;20479;-66
2021/12/11 22:05:18;;;;;;;27.13;8.73;;;;;;;;;;5039689;28;20033;-66
2021/12/11 22:07:44;;;;;;;27.35;8.02;;;;;;;;;;5042986;28;20037;-66
2021/12/11 22:10:12;;;;;;;19.10;6.22;;;;;;;;;;5040810;28;20029;-66
2021/12/11 22:12:38;;;;;;;19.70;6.15;;;;;;;;;;5036233;28;20029;-66
2021/12/11 22:15:07;;;;;;;22.98;6.50;;;;;;;;;;5050379;28;20514;-66
2021/12/11 22:17:33;;;;;;;14.73;5.15;;;;;;;;;;5048792;28;20032;-66
2021/12/11 22:20:00;;;;;;;17.75;4.43;;;;;;;;;;5050294;28;20060;-66
2021/12/11 22:22:28;;;;;;;18.67;2.58;;;;;;;;;;5052449;28;20082;-67
2021/12/11 22:24:54;;;;;;;17.33;3.97;;;;;;;;;;5050339;28;20025;-66
2021/12/11 22:27:21;;;;;;;13.88;3.03;;;;;;;;;;5050209;28;20025;-66
2021/12/11 22:29:50;;;;;;;15.50;3.05;;;;;;;;;;5049815;28;20029;-66
2021/12/11 22:32:16;;;;;;;20.13;3.45;;;;;;;;;;5050094;28;20025;-65
2021/12/11 22:34:42;;;;;;;18.77;3.15;;;;;;;;;;5051026;28;20036;-65
2021/12/11 22:37:09;;;;;;;17.27;3.42;;;;;;;;;;5056853;28;20497;-65
2021/12/11 22:39:36;;;;;;;15.05;2.92;;;;;;;;;;5063714;28;20100;-66
2021/12/11 22:42:03;;;;;;;21.73;4.45;;;;;;;;;;5056730;28;20047;-66
2021/12/11 22:44:34;;;;;;;18.58;3.80;;;;;;;;;;5057295;28;20063;-65
2021/12/11 22:47:03;;;;;;;26.98;6.18;;;;;;;;;;5067099;28;20496;-64
2021/12/11 22:49:29;;;;;;;23.30;5.47;;;;;;;;;;5061182;28;20024;-65
2021/12/11 22:51:56;;;;;;;21.15;4.03;;;;;;;;;;5064894;28;20433;-66
2021/12/11 22:54:29;;;;;;;21.90;4.35;;;;;;;;;;5063081;28;20110;-65
2021/12/11 22:56:57;;;;;;;27.35;4.85;;;;;;;;;;5060836;28;20049;-65
2021/12/11 22:59:24;;;;;;;22.83;3.65;;;;;;;;;;5067149;28;20033;-66
2021/12/11 23:01:52;;;;;;;21.10;5.22;;;;;;;;;;5055519;28;20021;-65
2021/12/11 23:04:19;;;;;;;20.92;4.70;;;;;;;;;;5055358;28;20024;-65
2021/12/11 23:06:47;;;;;;;17.20;4.65;;;;;;;;;;5062627;28;20028;-65
2021/12/11 23:09:15;;;;;;;10.40;3.10;;;;;;;;;;5053209;28;20426;-65
2021/12/11 23:11:42;;;;;;;13.10;4.18;;;;;;;;;;5064564;28;20025;-64
2021/12/11 23:14:11;;;;;;;21.08;2.50;;;;;;;;;;5052398;28;20697;-65
2021/12/11 23:16:38;;;;;;;15.18;2.50;;;;;;;;;;5053344;28;20060;-65
2021/12/11 23:19:09;;;;;;;10.68;2.95;;;;;;;;;;5053337;28;20025;-65
2021/12/11 23:21:37;;;;;;;12.95;2.28;;;;;;;;;;5051678;28;20108;-65
2021/12/11 23:24:15;;;;;;;16.17;3.30;;;;;;;;;;5052997;28;20032;-65
